<?xml version="1.0" encoding="UTF-8" standalone="no" ?>
<gpx xmlns="http://www.topografix.com/GPX/1/1" xmlns:xsi="http://www.w3.org/2001/XMLSchema-instance" xsi:schemaLocation="http://www.topografix.com/GPX/1/1 http://www.topografix.com/GPX/1/1/gpx.xsd" version="1.1" creator="VisuGPX - https://www.visugpx.com">
  <metadata>
    <name>Clefcy : Mémorial-Chalet d'Eden-retour par GR533</name>
    <desc><![CDATA[3h15
Pas mal de forêt. Nombreux passages non balisés. ]]></desc>
  </metadata>
  <trk>
    <name><![CDATA[Mémorial-Chalet d'Eden-retour par GR533]]></name>
    <desc><![CDATA[Carte 3618 OT Le Honeck - Gérardmer
3h15
Pas mal de forêt. Nombreux passages non balisés. ]]></desc>
    <trkseg>
      <trkpt lat="48.15456" lon="6.97048">
        <ele>679.05</ele>
        <time>2014-02-04T14:40:22Z</time>
      </trkpt>
      <trkpt lat="48.15456" lon="6.97048">
        <ele>679.05</ele>
        <time>2014-02-04T14:40:23Z</time>
      </trkpt>
      <trkpt lat="48.15456" lon="6.97049">
        <ele>679.05</ele>
        <time>2014-02-04T14:40:27Z</time>
      </trkpt>
      <trkpt lat="48.15457" lon="6.97053">
        <ele>678.95</ele>
        <time>2014-02-04T14:40:43Z</time>
      </trkpt>
      <trkpt lat="48.15451" lon="6.97061">
        <ele>679.08</ele>
        <time>2014-02-04T14:41:03Z</time>
      </trkpt>
      <trkpt lat="48.1544" lon="6.97066">
        <ele>679.92</ele>
        <time>2014-02-04T14:41:25Z</time>
      </trkpt>
      <trkpt lat="48.15438" lon="6.97066">
        <ele>680.31</ele>
        <time>2014-02-04T14:41:43Z</time>
      </trkpt>
      <trkpt lat="48.15437" lon="6.97065">
        <ele>680.1</ele>
        <time>2014-02-04T14:42:07Z</time>
      </trkpt>
      <trkpt lat="48.15434" lon="6.9707">
        <ele>679.81</ele>
        <time>2014-02-04T14:42:31Z</time>
      </trkpt>
      <trkpt lat="48.15433" lon="6.97071">
        <ele>679.84</ele>
        <time>2014-02-04T14:42:32Z</time>
      </trkpt>
      <trkpt lat="48.15432" lon="6.97072">
        <ele>679.85</ele>
        <time>2014-02-04T14:42:33Z</time>
      </trkpt>
      <trkpt lat="48.15431" lon="6.97074">
        <ele>680</ele>
        <time>2014-02-04T14:42:36Z</time>
      </trkpt>
      <trkpt lat="48.1543" lon="6.97076">
        <ele>680.05</ele>
        <time>2014-02-04T14:42:37Z</time>
      </trkpt>
      <trkpt lat="48.15429" lon="6.97077">
        <ele>680.13</ele>
        <time>2014-02-04T14:42:38Z</time>
      </trkpt>
      <trkpt lat="48.15427" lon="6.9708">
        <ele>680.3</ele>
        <time>2014-02-04T14:42:41Z</time>
      </trkpt>
      <trkpt lat="48.15426" lon="6.97081">
        <ele>680.35</ele>
        <time>2014-02-04T14:42:42Z</time>
      </trkpt>
      <trkpt lat="48.15413" lon="6.97095">
        <ele>681.87</ele>
        <time>2014-02-04T14:42:58Z</time>
      </trkpt>
      <trkpt lat="48.15399" lon="6.97109">
        <ele>682.88</ele>
        <time>2014-02-04T14:43:15Z</time>
      </trkpt>
      <trkpt lat="48.15378" lon="6.97119">
        <ele>684.67</ele>
        <time>2014-02-04T14:43:36Z</time>
      </trkpt>
      <trkpt lat="48.15374" lon="6.9712">
        <ele>684.8</ele>
        <time>2014-02-04T14:43:39Z</time>
      </trkpt>
      <trkpt lat="48.1536" lon="6.97115">
        <ele>685.23</ele>
        <time>2014-02-04T14:43:52Z</time>
      </trkpt>
      <trkpt lat="48.15354" lon="6.97099">
        <ele>687.75</ele>
        <time>2014-02-04T14:44:06Z</time>
      </trkpt>
      <trkpt lat="48.15357" lon="6.97077">
        <ele>690.05</ele>
        <time>2014-02-04T14:44:23Z</time>
      </trkpt>
      <trkpt lat="48.15364" lon="6.97055">
        <ele>691.54</ele>
        <time>2014-02-04T14:44:37Z</time>
      </trkpt>
      <trkpt lat="48.1537" lon="6.97037">
        <ele>692.85</ele>
        <time>2014-02-04T14:44:49Z</time>
      </trkpt>
      <trkpt lat="48.15375" lon="6.97016">
        <ele>694.53</ele>
        <time>2014-02-04T14:45:04Z</time>
      </trkpt>
      <trkpt lat="48.15376" lon="6.97006">
        <ele>695.36</ele>
        <time>2014-02-04T14:45:18Z</time>
      </trkpt>
      <trkpt lat="48.15383" lon="6.96979">
        <ele>697.14</ele>
        <time>2014-02-04T14:45:34Z</time>
      </trkpt>
      <trkpt lat="48.15389" lon="6.96961">
        <ele>699.35</ele>
        <time>2014-02-04T14:45:48Z</time>
      </trkpt>
      <trkpt lat="48.15391" lon="6.96958">
        <ele>700.37</ele>
        <time>2014-02-04T14:46:11Z</time>
      </trkpt>
      <trkpt lat="48.15391" lon="6.96941">
        <ele>701.76</ele>
        <time>2014-02-04T14:46:40Z</time>
      </trkpt>
      <trkpt lat="48.15388" lon="6.9693">
        <ele>702.89</ele>
        <time>2014-02-04T14:46:48Z</time>
      </trkpt>
      <trkpt lat="48.15386" lon="6.9691">
        <ele>705.52</ele>
        <time>2014-02-04T14:47:03Z</time>
      </trkpt>
      <trkpt lat="48.15384" lon="6.96892">
        <ele>708.61</ele>
        <time>2014-02-04T14:47:16Z</time>
      </trkpt>
      <trkpt lat="48.1538" lon="6.96868">
        <ele>711.61</ele>
        <time>2014-02-04T14:47:30Z</time>
      </trkpt>
      <trkpt lat="48.15372" lon="6.96841">
        <ele>714.8</ele>
        <time>2014-02-04T14:47:46Z</time>
      </trkpt>
      <trkpt lat="48.15366" lon="6.96819">
        <ele>717.9</ele>
        <time>2014-02-04T14:48:02Z</time>
      </trkpt>
      <trkpt lat="48.15362" lon="6.96798">
        <ele>720.95</ele>
        <time>2014-02-04T14:48:19Z</time>
      </trkpt>
      <trkpt lat="48.1535" lon="6.96785">
        <ele>724.1</ele>
        <time>2014-02-04T14:48:37Z</time>
      </trkpt>
      <trkpt lat="48.1535" lon="6.96763">
        <ele>726.47</ele>
        <time>2014-02-04T14:48:57Z</time>
      </trkpt>
      <trkpt lat="48.15356" lon="6.9674">
        <ele>729.62</ele>
        <time>2014-02-04T14:49:17Z</time>
      </trkpt>
      <trkpt lat="48.1536" lon="6.96718">
        <ele>732.71</ele>
        <time>2014-02-04T14:49:36Z</time>
      </trkpt>
      <trkpt lat="48.15364" lon="6.96695">
        <ele>735.13</ele>
        <time>2014-02-04T14:49:54Z</time>
      </trkpt>
      <trkpt lat="48.15369" lon="6.9667">
        <ele>736.91</ele>
        <time>2014-02-04T14:50:13Z</time>
      </trkpt>
      <trkpt lat="48.15372" lon="6.96666">
        <ele>737.19</ele>
        <time>2014-02-04T14:50:17Z</time>
      </trkpt>
      <trkpt lat="48.15374" lon="6.96663">
        <ele>737.47</ele>
        <time>2014-02-04T14:50:20Z</time>
      </trkpt>
      <trkpt lat="48.15385" lon="6.96645">
        <ele>739.6</ele>
        <time>2014-02-04T14:50:37Z</time>
      </trkpt>
      <trkpt lat="48.15395" lon="6.96634">
        <ele>741.97</ele>
        <time>2014-02-04T14:50:53Z</time>
      </trkpt>
      <trkpt lat="48.15406" lon="6.96621">
        <ele>744.34</ele>
        <time>2014-02-04T14:51:12Z</time>
      </trkpt>
      <trkpt lat="48.15413" lon="6.96608">
        <ele>747.39</ele>
        <time>2014-02-04T14:51:29Z</time>
      </trkpt>
      <trkpt lat="48.15428" lon="6.96594">
        <ele>749.45</ele>
        <time>2014-02-04T14:51:47Z</time>
      </trkpt>
      <trkpt lat="48.15441" lon="6.96582">
        <ele>749.61</ele>
        <time>2014-02-04T14:52:03Z</time>
      </trkpt>
      <trkpt lat="48.15446" lon="6.96575">
        <ele>750.12</ele>
        <time>2014-02-04T14:52:18Z</time>
      </trkpt>
      <trkpt lat="48.15452" lon="6.96574">
        <ele>750.29</ele>
        <time>2014-02-04T14:52:40Z</time>
      </trkpt>
      <trkpt lat="48.15465" lon="6.96567">
        <ele>750.6</ele>
        <time>2014-02-04T14:53:06Z</time>
      </trkpt>
      <trkpt lat="48.15477" lon="6.96552">
        <ele>751.49</ele>
        <time>2014-02-04T14:53:23Z</time>
      </trkpt>
      <trkpt lat="48.1549" lon="6.96538">
        <ele>751.71</ele>
        <time>2014-02-04T14:53:39Z</time>
      </trkpt>
      <trkpt lat="48.15503" lon="6.96523">
        <ele>751.2</ele>
        <time>2014-02-04T14:53:54Z</time>
      </trkpt>
      <trkpt lat="48.15511" lon="6.96511">
        <ele>750.99</ele>
        <time>2014-02-04T14:54:04Z</time>
      </trkpt>
      <trkpt lat="48.15515" lon="6.96506">
        <ele>751.14</ele>
        <time>2014-02-04T14:54:09Z</time>
      </trkpt>
      <trkpt lat="48.15522" lon="6.96492">
        <ele>750.96</ele>
        <time>2014-02-04T14:54:21Z</time>
      </trkpt>
      <trkpt lat="48.15529" lon="6.96482">
        <ele>750.49</ele>
        <time>2014-02-04T14:54:29Z</time>
      </trkpt>
      <trkpt lat="48.15537" lon="6.9646">
        <ele>749.69</ele>
        <time>2014-02-04T14:54:41Z</time>
      </trkpt>
      <trkpt lat="48.15555" lon="6.9644">
        <ele>748.73</ele>
        <time>2014-02-04T14:55:02Z</time>
      </trkpt>
      <trkpt lat="48.15566" lon="6.96433">
        <ele>749.01</ele>
        <time>2014-02-04T14:55:17Z</time>
      </trkpt>
      <trkpt lat="48.15583" lon="6.96424">
        <ele>748.92</ele>
        <time>2014-02-04T14:55:35Z</time>
      </trkpt>
      <trkpt lat="48.15595" lon="6.96403">
        <ele>749.91</ele>
        <time>2014-02-04T14:55:52Z</time>
      </trkpt>
      <trkpt lat="48.15608" lon="6.96391">
        <ele>751.12</ele>
        <time>2014-02-04T14:56:08Z</time>
      </trkpt>
      <trkpt lat="48.1562" lon="6.96371">
        <ele>750.83</ele>
        <time>2014-02-04T14:56:27Z</time>
      </trkpt>
      <trkpt lat="48.15637" lon="6.96349">
        <ele>751.22</ele>
        <time>2014-02-04T14:56:46Z</time>
      </trkpt>
      <trkpt lat="48.15652" lon="6.96343">
        <ele>752.8</ele>
        <time>2014-02-04T14:57:04Z</time>
      </trkpt>
      <trkpt lat="48.15673" lon="6.96325">
        <ele>754.57</ele>
        <time>2014-02-04T14:57:23Z</time>
      </trkpt>
      <trkpt lat="48.1568" lon="6.96319">
        <ele>755.17</ele>
        <time>2014-02-04T14:57:29Z</time>
      </trkpt>
      <trkpt lat="48.1569" lon="6.96307">
        <ele>756.32</ele>
        <time>2014-02-04T14:57:44Z</time>
      </trkpt>
      <trkpt lat="48.15702" lon="6.9629">
        <ele>758.73</ele>
        <time>2014-02-04T14:58:04Z</time>
      </trkpt>
      <trkpt lat="48.1572" lon="6.96271">
        <ele>760.51</ele>
        <time>2014-02-04T14:58:27Z</time>
      </trkpt>
      <trkpt lat="48.15735" lon="6.96261">
        <ele>761.02</ele>
        <time>2014-02-04T14:58:48Z</time>
      </trkpt>
      <trkpt lat="48.15752" lon="6.96246">
        <ele>762.12</ele>
        <time>2014-02-04T14:59:09Z</time>
      </trkpt>
      <trkpt lat="48.15766" lon="6.9623">
        <ele>763.11</ele>
        <time>2014-02-04T14:59:26Z</time>
      </trkpt>
      <trkpt lat="48.15781" lon="6.9622">
        <ele>763.97</ele>
        <time>2014-02-04T14:59:42Z</time>
      </trkpt>
      <trkpt lat="48.1579" lon="6.96208">
        <ele>764.68</ele>
        <time>2014-02-04T14:59:59Z</time>
      </trkpt>
      <trkpt lat="48.15804" lon="6.96191">
        <ele>765.37</ele>
        <time>2014-02-04T15:00:18Z</time>
      </trkpt>
      <trkpt lat="48.15821" lon="6.96173">
        <ele>766.61</ele>
        <time>2014-02-04T15:00:36Z</time>
      </trkpt>
      <trkpt lat="48.15838" lon="6.96158">
        <ele>767.56</ele>
        <time>2014-02-04T15:00:57Z</time>
      </trkpt>
      <trkpt lat="48.15855" lon="6.96137">
        <ele>768.34</ele>
        <time>2014-02-04T15:01:18Z</time>
      </trkpt>
      <trkpt lat="48.15864" lon="6.96128">
        <ele>768.55</ele>
        <time>2014-02-04T15:01:26Z</time>
      </trkpt>
      <trkpt lat="48.15876" lon="6.96118">
        <ele>767.96</ele>
        <time>2014-02-04T15:01:38Z</time>
      </trkpt>
      <trkpt lat="48.1589" lon="6.96107">
        <ele>768.17</ele>
        <time>2014-02-04T15:01:53Z</time>
      </trkpt>
      <trkpt lat="48.15896" lon="6.96103">
        <ele>768.28</ele>
        <time>2014-02-04T15:02:00Z</time>
      </trkpt>
      <trkpt lat="48.15914" lon="6.96094">
        <ele>768.74</ele>
        <time>2014-02-04T15:02:18Z</time>
      </trkpt>
      <trkpt lat="48.15931" lon="6.96085">
        <ele>768.78</ele>
        <time>2014-02-04T15:02:36Z</time>
      </trkpt>
      <trkpt lat="48.15948" lon="6.96074">
        <ele>768.92</ele>
        <time>2014-02-04T15:02:55Z</time>
      </trkpt>
      <trkpt lat="48.15967" lon="6.96064">
        <ele>769.4</ele>
        <time>2014-02-04T15:03:11Z</time>
      </trkpt>
      <trkpt lat="48.15982" lon="6.96052">
        <ele>769.85</ele>
        <time>2014-02-04T15:03:27Z</time>
      </trkpt>
      <trkpt lat="48.15991" lon="6.96049">
        <ele>769.88</ele>
        <time>2014-02-04T15:03:50Z</time>
      </trkpt>
      <trkpt lat="48.16007" lon="6.96028">
        <ele>769.94</ele>
        <time>2014-02-04T15:04:11Z</time>
      </trkpt>
      <trkpt lat="48.16017" lon="6.9602">
        <ele>770.78</ele>
        <time>2014-02-04T15:04:26Z</time>
      </trkpt>
      <trkpt lat="48.16016" lon="6.96024">
        <ele>770.91</ele>
        <time>2014-02-04T15:04:41Z</time>
      </trkpt>
      <trkpt lat="48.16025" lon="6.96007">
        <ele>770.93</ele>
        <time>2014-02-04T15:04:58Z</time>
      </trkpt>
      <trkpt lat="48.1604" lon="6.95982">
        <ele>770.27</ele>
        <time>2014-02-04T15:05:17Z</time>
      </trkpt>
      <trkpt lat="48.16042" lon="6.95978">
        <ele>770.2</ele>
        <time>2014-02-04T15:05:20Z</time>
      </trkpt>
      <trkpt lat="48.16043" lon="6.95965">
        <ele>770.71</ele>
        <time>2014-02-04T15:05:35Z</time>
      </trkpt>
      <trkpt lat="48.16054" lon="6.9595">
        <ele>768.5</ele>
        <time>2014-02-04T15:05:53Z</time>
      </trkpt>
      <trkpt lat="48.16062" lon="6.95929">
        <ele>767.63</ele>
        <time>2014-02-04T15:06:12Z</time>
      </trkpt>
      <trkpt lat="48.16064" lon="6.95901">
        <ele>766.71</ele>
        <time>2014-02-04T15:06:32Z</time>
      </trkpt>
      <trkpt lat="48.16061" lon="6.95897">
        <ele>766.05</ele>
        <time>2014-02-04T15:06:52Z</time>
      </trkpt>
      <trkpt lat="48.16047" lon="6.95898">
        <ele>767.5</ele>
        <time>2014-02-04T15:07:13Z</time>
      </trkpt>
      <trkpt lat="48.16034" lon="6.95903">
        <ele>770.25</ele>
        <time>2014-02-04T15:07:32Z</time>
      </trkpt>
      <trkpt lat="48.16025" lon="6.95898">
        <ele>771.82</ele>
        <time>2014-02-04T15:07:48Z</time>
      </trkpt>
      <trkpt lat="48.16017" lon="6.95869">
        <ele>771.4</ele>
        <time>2014-02-04T15:08:09Z</time>
      </trkpt>
      <trkpt lat="48.16016" lon="6.95862">
        <ele>771.27</ele>
        <time>2014-02-04T15:08:13Z</time>
      </trkpt>
      <trkpt lat="48.16007" lon="6.9583">
        <ele>771.53</ele>
        <time>2014-02-04T15:08:30Z</time>
      </trkpt>
      <trkpt lat="48.16002" lon="6.95811">
        <ele>771.32</ele>
        <time>2014-02-04T15:08:43Z</time>
      </trkpt>
      <trkpt lat="48.15988" lon="6.9578">
        <ele>771.38</ele>
        <time>2014-02-04T15:09:02Z</time>
      </trkpt>
      <trkpt lat="48.15979" lon="6.9576">
        <ele>771.63</ele>
        <time>2014-02-04T15:09:16Z</time>
      </trkpt>
      <trkpt lat="48.15969" lon="6.95737">
        <ele>771.77</ele>
        <time>2014-02-04T15:09:33Z</time>
      </trkpt>
      <trkpt lat="48.15963" lon="6.95712">
        <ele>771.68</ele>
        <time>2014-02-04T15:09:52Z</time>
      </trkpt>
      <trkpt lat="48.15956" lon="6.95691">
        <ele>772.14</ele>
        <time>2014-02-04T15:10:15Z</time>
      </trkpt>
      <trkpt lat="48.15958" lon="6.95684">
        <ele>771.97</ele>
        <time>2014-02-04T15:10:48Z</time>
      </trkpt>
      <trkpt lat="48.15951" lon="6.95657">
        <ele>772.15</ele>
        <time>2014-02-04T15:11:12Z</time>
      </trkpt>
      <trkpt lat="48.15952" lon="6.95654">
        <ele>771.99</ele>
        <time>2014-02-04T15:11:19Z</time>
      </trkpt>
      <trkpt lat="48.1595" lon="6.95638">
        <ele>772.06</ele>
        <time>2014-02-04T15:11:43Z</time>
      </trkpt>
      <trkpt lat="48.15942" lon="6.9562">
        <ele>771.76</ele>
        <time>2014-02-04T15:12:07Z</time>
      </trkpt>
      <trkpt lat="48.15942" lon="6.95604">
        <ele>772.18</ele>
        <time>2014-02-04T15:12:36Z</time>
      </trkpt>
      <trkpt lat="48.15941" lon="6.95606">
        <ele>772.36</ele>
        <time>2014-02-04T15:12:46Z</time>
      </trkpt>
      <trkpt lat="48.15938" lon="6.9558">
        <ele>771.93</ele>
        <time>2014-02-04T15:13:08Z</time>
      </trkpt>
      <trkpt lat="48.15934" lon="6.95551">
        <ele>771.21</ele>
        <time>2014-02-04T15:13:25Z</time>
      </trkpt>
      <trkpt lat="48.15932" lon="6.95517">
        <ele>770.29</ele>
        <time>2014-02-04T15:13:47Z</time>
      </trkpt>
      <trkpt lat="48.15939" lon="6.95508">
        <ele>769.78</ele>
        <time>2014-02-04T15:14:06Z</time>
      </trkpt>
      <trkpt lat="48.15934" lon="6.9549">
        <ele>769.49</ele>
        <time>2014-02-04T15:14:21Z</time>
      </trkpt>
      <trkpt lat="48.15931" lon="6.95483">
        <ele>769.26</ele>
        <time>2014-02-04T15:14:43Z</time>
      </trkpt>
      <trkpt lat="48.1593" lon="6.9547">
        <ele>769.18</ele>
        <time>2014-02-04T15:15:06Z</time>
      </trkpt>
      <trkpt lat="48.15928" lon="6.95436">
        <ele>770.02</ele>
        <time>2014-02-04T15:15:31Z</time>
      </trkpt>
      <trkpt lat="48.15927" lon="6.95432">
        <ele>770.07</ele>
        <time>2014-02-04T15:15:33Z</time>
      </trkpt>
      <trkpt lat="48.15928" lon="6.95399">
        <ele>768.85</ele>
        <time>2014-02-04T15:15:56Z</time>
      </trkpt>
      <trkpt lat="48.15926" lon="6.95387">
        <ele>768.52</ele>
        <time>2014-02-04T15:16:05Z</time>
      </trkpt>
      <trkpt lat="48.15922" lon="6.95365">
        <ele>768.01</ele>
        <time>2014-02-04T15:16:25Z</time>
      </trkpt>
      <trkpt lat="48.1592" lon="6.95332">
        <ele>766.67</ele>
        <time>2014-02-04T15:16:46Z</time>
      </trkpt>
      <trkpt lat="48.15922" lon="6.9532">
        <ele>765.9</ele>
        <time>2014-02-04T15:17:02Z</time>
      </trkpt>
      <trkpt lat="48.1591" lon="6.95322">
        <ele>765.85</ele>
        <time>2014-02-04T15:17:19Z</time>
      </trkpt>
      <trkpt lat="48.15907" lon="6.95324">
        <ele>768.12</ele>
        <time>2014-02-04T15:17:44Z</time>
      </trkpt>
      <trkpt lat="48.15911" lon="6.95329">
        <ele>768.48</ele>
        <time>2014-02-04T15:18:13Z</time>
      </trkpt>
      <trkpt lat="48.15896" lon="6.95327">
        <ele>768.23</ele>
        <time>2014-02-04T15:18:45Z</time>
      </trkpt>
      <trkpt lat="48.15895" lon="6.95321">
        <ele>768.52</ele>
        <time>2014-02-04T15:18:53Z</time>
      </trkpt>
      <trkpt lat="48.15898" lon="6.95309">
        <ele>767.47</ele>
        <time>2014-02-04T15:19:08Z</time>
      </trkpt>
      <trkpt lat="48.15914" lon="6.95304">
        <ele>766.23</ele>
        <time>2014-02-04T15:19:25Z</time>
      </trkpt>
      <trkpt lat="48.15918" lon="6.95302">
        <ele>765.7</ele>
        <time>2014-02-04T15:19:30Z</time>
      </trkpt>
      <trkpt lat="48.15941" lon="6.95285">
        <ele>763.67</ele>
        <time>2014-02-04T15:19:49Z</time>
      </trkpt>
      <trkpt lat="48.15953" lon="6.95277">
        <ele>761.99</ele>
        <time>2014-02-04T15:20:04Z</time>
      </trkpt>
      <trkpt lat="48.15955" lon="6.95275">
        <ele>761.63</ele>
        <time>2014-02-04T15:20:07Z</time>
      </trkpt>
      <trkpt lat="48.15958" lon="6.95273">
        <ele>761.3</ele>
        <time>2014-02-04T15:20:10Z</time>
      </trkpt>
      <trkpt lat="48.15978" lon="6.95256">
        <ele>758.91</ele>
        <time>2014-02-04T15:20:30Z</time>
      </trkpt>
      <trkpt lat="48.15986" lon="6.9523">
        <ele>757.11</ele>
        <time>2014-02-04T15:20:48Z</time>
      </trkpt>
      <trkpt lat="48.15986" lon="6.95217">
        <ele>755.99</ele>
        <time>2014-02-04T15:21:04Z</time>
      </trkpt>
      <trkpt lat="48.15987" lon="6.95191">
        <ele>755.01</ele>
        <time>2014-02-04T15:21:21Z</time>
      </trkpt>
      <trkpt lat="48.15989" lon="6.95182">
        <ele>754.06</ele>
        <time>2014-02-04T15:21:41Z</time>
      </trkpt>
      <trkpt lat="48.1599" lon="6.95161">
        <ele>753.36</ele>
        <time>2014-02-04T15:21:58Z</time>
      </trkpt>
      <trkpt lat="48.15988" lon="6.95156">
        <ele>752.45</ele>
        <time>2014-02-04T15:22:20Z</time>
      </trkpt>
      <trkpt lat="48.15982" lon="6.95144">
        <ele>752</ele>
        <time>2014-02-04T15:22:49Z</time>
      </trkpt>
      <trkpt lat="48.15976" lon="6.95135">
        <ele>751.43</ele>
        <time>2014-02-04T15:23:06Z</time>
      </trkpt>
      <trkpt lat="48.15966" lon="6.95118">
        <ele>750.86</ele>
        <time>2014-02-04T15:23:21Z</time>
      </trkpt>
      <trkpt lat="48.15959" lon="6.95105">
        <ele>750.02</ele>
        <time>2014-02-04T15:23:33Z</time>
      </trkpt>
      <trkpt lat="48.15953" lon="6.95099">
        <ele>749.49</ele>
        <time>2014-02-04T15:23:53Z</time>
      </trkpt>
      <trkpt lat="48.1595" lon="6.95089">
        <ele>749.23</ele>
        <time>2014-02-04T15:24:08Z</time>
      </trkpt>
      <trkpt lat="48.15954" lon="6.95069">
        <ele>747.11</ele>
        <time>2014-02-04T15:24:27Z</time>
      </trkpt>
      <trkpt lat="48.15955" lon="6.95065">
        <ele>745.95</ele>
        <time>2014-02-04T15:24:49Z</time>
      </trkpt>
      <trkpt lat="48.15956" lon="6.95058">
        <ele>745.27</ele>
        <time>2014-02-04T15:25:24Z</time>
      </trkpt>
      <trkpt lat="48.1596" lon="6.95039">
        <ele>743.28</ele>
        <time>2014-02-04T15:25:41Z</time>
      </trkpt>
      <trkpt lat="48.15961" lon="6.95031">
        <ele>742.57</ele>
        <time>2014-02-04T15:25:47Z</time>
      </trkpt>
      <trkpt lat="48.15969" lon="6.95003">
        <ele>739.32</ele>
        <time>2014-02-04T15:26:05Z</time>
      </trkpt>
      <trkpt lat="48.15975" lon="6.94985">
        <ele>736.18</ele>
        <time>2014-02-04T15:26:18Z</time>
      </trkpt>
      <trkpt lat="48.15974" lon="6.94965">
        <ele>733.17</ele>
        <time>2014-02-04T15:26:32Z</time>
      </trkpt>
      <trkpt lat="48.15972" lon="6.94954">
        <ele>731.51</ele>
        <time>2014-02-04T15:26:39Z</time>
      </trkpt>
      <trkpt lat="48.15979" lon="6.94943">
        <ele>728.5</ele>
        <time>2014-02-04T15:26:59Z</time>
      </trkpt>
      <trkpt lat="48.15986" lon="6.94941">
        <ele>727.81</ele>
        <time>2014-02-04T15:27:04Z</time>
      </trkpt>
      <trkpt lat="48.15997" lon="6.94936">
        <ele>727.23</ele>
        <time>2014-02-04T15:27:09Z</time>
      </trkpt>
      <trkpt lat="48.16008" lon="6.94932">
        <ele>725.4</ele>
        <time>2014-02-04T15:27:22Z</time>
      </trkpt>
      <trkpt lat="48.16019" lon="6.9493">
        <ele>723.56</ele>
        <time>2014-02-04T15:27:35Z</time>
      </trkpt>
      <trkpt lat="48.16033" lon="6.94937">
        <ele>720.68</ele>
        <time>2014-02-04T15:27:58Z</time>
      </trkpt>
      <trkpt lat="48.16058" lon="6.94948">
        <ele>717.86</ele>
        <time>2014-02-04T15:28:18Z</time>
      </trkpt>
      <trkpt lat="48.16112" lon="6.94952">
        <ele>715.11</ele>
        <time>2014-02-04T15:28:41Z</time>
      </trkpt>
      <trkpt lat="48.16129" lon="6.94962">
        <ele>712.02</ele>
        <time>2014-02-04T15:28:57Z</time>
      </trkpt>
      <trkpt lat="48.16129" lon="6.94963">
        <ele>711.92</ele>
        <time>2014-02-04T15:28:58Z</time>
      </trkpt>
      <trkpt lat="48.16146" lon="6.94979">
        <ele>710.07</ele>
        <time>2014-02-04T15:29:16Z</time>
      </trkpt>
      <trkpt lat="48.1617" lon="6.94992">
        <ele>707.84</ele>
        <time>2014-02-04T15:29:37Z</time>
      </trkpt>
      <trkpt lat="48.16198" lon="6.94995">
        <ele>705.28</ele>
        <time>2014-02-04T15:30:00Z</time>
      </trkpt>
      <trkpt lat="48.16221" lon="6.94992">
        <ele>703.07</ele>
        <time>2014-02-04T15:30:21Z</time>
      </trkpt>
      <trkpt lat="48.16243" lon="6.94986">
        <ele>701.02</ele>
        <time>2014-02-04T15:30:40Z</time>
      </trkpt>
      <trkpt lat="48.16262" lon="6.94979">
        <ele>699.28</ele>
        <time>2014-02-04T15:30:58Z</time>
      </trkpt>
      <trkpt lat="48.16277" lon="6.94975">
        <ele>697.66</ele>
        <time>2014-02-04T15:31:13Z</time>
      </trkpt>
      <trkpt lat="48.16288" lon="6.94973">
        <ele>696.4</ele>
        <time>2014-02-04T15:31:24Z</time>
      </trkpt>
      <trkpt lat="48.16305" lon="6.94968">
        <ele>694.58</ele>
        <time>2014-02-04T15:31:41Z</time>
      </trkpt>
      <trkpt lat="48.16321" lon="6.94973">
        <ele>692.76</ele>
        <time>2014-02-04T15:31:58Z</time>
      </trkpt>
      <trkpt lat="48.16338" lon="6.94975">
        <ele>690.97</ele>
        <time>2014-02-04T15:32:15Z</time>
      </trkpt>
      <trkpt lat="48.16343" lon="6.94976">
        <ele>690.45</ele>
        <time>2014-02-04T15:32:21Z</time>
      </trkpt>
      <trkpt lat="48.16362" lon="6.94992">
        <ele>688.21</ele>
        <time>2014-02-04T15:32:41Z</time>
      </trkpt>
      <trkpt lat="48.16378" lon="6.95015">
        <ele>686.27</ele>
        <time>2014-02-04T15:33:02Z</time>
      </trkpt>
      <trkpt lat="48.1639" lon="6.95041">
        <ele>684.27</ele>
        <time>2014-02-04T15:33:22Z</time>
      </trkpt>
      <trkpt lat="48.16399" lon="6.95058">
        <ele>682.48</ele>
        <time>2014-02-04T15:33:40Z</time>
      </trkpt>
      <trkpt lat="48.16414" lon="6.95083">
        <ele>680.96</ele>
        <time>2014-02-04T15:34:01Z</time>
      </trkpt>
      <trkpt lat="48.16431" lon="6.95102">
        <ele>678.91</ele>
        <time>2014-02-04T15:34:21Z</time>
      </trkpt>
      <trkpt lat="48.16438" lon="6.95109">
        <ele>677.84</ele>
        <time>2014-02-04T15:34:30Z</time>
      </trkpt>
      <trkpt lat="48.16452" lon="6.95121">
        <ele>676.09</ele>
        <time>2014-02-04T15:34:48Z</time>
      </trkpt>
      <trkpt lat="48.16466" lon="6.9513">
        <ele>674.63</ele>
        <time>2014-02-04T15:35:03Z</time>
      </trkpt>
      <trkpt lat="48.16478" lon="6.95145">
        <ele>673.19</ele>
        <time>2014-02-04T15:35:21Z</time>
      </trkpt>
      <trkpt lat="48.16491" lon="6.9516">
        <ele>671.49</ele>
        <time>2014-02-04T15:35:39Z</time>
      </trkpt>
      <trkpt lat="48.16499" lon="6.95165">
        <ele>670.16</ele>
        <time>2014-02-04T15:35:55Z</time>
      </trkpt>
      <trkpt lat="48.16504" lon="6.95146">
        <ele>668.78</ele>
        <time>2014-02-04T15:36:15Z</time>
      </trkpt>
      <trkpt lat="48.16505" lon="6.95135">
        <ele>667.91</ele>
        <time>2014-02-04T15:36:23Z</time>
      </trkpt>
      <trkpt lat="48.16507" lon="6.95113">
        <ele>665.81</ele>
        <time>2014-02-04T15:36:40Z</time>
      </trkpt>
      <trkpt lat="48.16509" lon="6.95094">
        <ele>664.23</ele>
        <time>2014-02-04T15:36:55Z</time>
      </trkpt>
      <trkpt lat="48.16512" lon="6.95073">
        <ele>661.82</ele>
        <time>2014-02-04T15:37:10Z</time>
      </trkpt>
      <trkpt lat="48.16513" lon="6.9505">
        <ele>659.26</ele>
        <time>2014-02-04T15:37:25Z</time>
      </trkpt>
      <trkpt lat="48.16521" lon="6.95026">
        <ele>656.07</ele>
        <time>2014-02-04T15:37:46Z</time>
      </trkpt>
      <trkpt lat="48.16527" lon="6.95025">
        <ele>654.84</ele>
        <time>2014-02-04T15:37:53Z</time>
      </trkpt>
      <trkpt lat="48.16538" lon="6.95013">
        <ele>652.66</ele>
        <time>2014-02-04T15:38:08Z</time>
      </trkpt>
      <trkpt lat="48.16543" lon="6.94991">
        <ele>649.5</ele>
        <time>2014-02-04T15:38:25Z</time>
      </trkpt>
      <trkpt lat="48.16543" lon="6.9499">
        <ele>649.32</ele>
        <time>2014-02-04T15:38:26Z</time>
      </trkpt>
      <trkpt lat="48.16546" lon="6.94979">
        <ele>646.32</ele>
        <time>2014-02-04T15:38:40Z</time>
      </trkpt>
      <trkpt lat="48.16546" lon="6.94979">
        <ele>646.01</ele>
        <time>2014-02-04T15:38:43Z</time>
      </trkpt>
      <trkpt lat="48.16547" lon="6.94973">
        <ele>645.53</ele>
        <time>2014-02-04T15:38:47Z</time>
      </trkpt>
      <trkpt lat="48.16542" lon="6.9496">
        <ele>643.76</ele>
        <time>2014-02-04T15:39:01Z</time>
      </trkpt>
      <trkpt lat="48.1654" lon="6.94957">
        <ele>642.88</ele>
        <time>2014-02-04T15:39:15Z</time>
      </trkpt>
      <trkpt lat="48.1654" lon="6.94959">
        <ele>642.92</ele>
        <time>2014-02-04T15:39:34Z</time>
      </trkpt>
      <trkpt lat="48.16534" lon="6.94955">
        <ele>642.55</ele>
        <time>2014-02-04T15:40:09Z</time>
      </trkpt>
      <trkpt lat="48.16539" lon="6.94956">
        <ele>642.73</ele>
        <time>2014-02-04T15:40:33Z</time>
      </trkpt>
      <trkpt lat="48.16538" lon="6.94951">
        <ele>642.47</ele>
        <time>2014-02-04T15:40:52Z</time>
      </trkpt>
      <trkpt lat="48.16535" lon="6.94943">
        <ele>642.05</ele>
        <time>2014-02-04T15:41:09Z</time>
      </trkpt>
      <trkpt lat="48.16538" lon="6.94937">
        <ele>640.81</ele>
        <time>2014-02-04T15:41:27Z</time>
      </trkpt>
      <trkpt lat="48.16543" lon="6.94939">
        <ele>640.92</ele>
        <time>2014-02-04T15:41:53Z</time>
      </trkpt>
      <trkpt lat="48.16551" lon="6.94926">
        <ele>640.14</ele>
        <time>2014-02-04T15:42:08Z</time>
      </trkpt>
      <trkpt lat="48.16566" lon="6.94929">
        <ele>637.81</ele>
        <time>2014-02-04T15:42:31Z</time>
      </trkpt>
      <trkpt lat="48.16585" lon="6.94929">
        <ele>636.48</ele>
        <time>2014-02-04T15:42:48Z</time>
      </trkpt>
      <trkpt lat="48.16593" lon="6.94907">
        <ele>633.55</ele>
        <time>2014-02-04T15:43:06Z</time>
      </trkpt>
      <trkpt lat="48.1659" lon="6.94876">
        <ele>631.36</ele>
        <time>2014-02-04T15:43:26Z</time>
      </trkpt>
      <trkpt lat="48.16587" lon="6.94848">
        <ele>628.2</ele>
        <time>2014-02-04T15:43:45Z</time>
      </trkpt>
      <trkpt lat="48.16581" lon="6.94826">
        <ele>625.04</ele>
        <time>2014-02-04T15:44:01Z</time>
      </trkpt>
      <trkpt lat="48.1658" lon="6.94824">
        <ele>624.86</ele>
        <time>2014-02-04T15:44:02Z</time>
      </trkpt>
      <trkpt lat="48.16563" lon="6.94791">
        <ele>622.75</ele>
        <time>2014-02-04T15:44:23Z</time>
      </trkpt>
      <trkpt lat="48.16552" lon="6.94765">
        <ele>621.69</ele>
        <time>2014-02-04T15:44:39Z</time>
      </trkpt>
      <trkpt lat="48.16549" lon="6.9476">
        <ele>621.59</ele>
        <time>2014-02-04T15:44:42Z</time>
      </trkpt>
      <trkpt lat="48.16535" lon="6.94732">
        <ele>620.49</ele>
        <time>2014-02-04T15:44:58Z</time>
      </trkpt>
      <trkpt lat="48.16522" lon="6.94714">
        <ele>619.75</ele>
        <time>2014-02-04T15:45:13Z</time>
      </trkpt>
      <trkpt lat="48.16508" lon="6.94694">
        <ele>618.83</ele>
        <time>2014-02-04T15:45:29Z</time>
      </trkpt>
      <trkpt lat="48.16492" lon="6.94673">
        <ele>618.55</ele>
        <time>2014-02-04T15:45:47Z</time>
      </trkpt>
      <trkpt lat="48.16489" lon="6.94669">
        <ele>618.47</ele>
        <time>2014-02-04T15:45:50Z</time>
      </trkpt>
      <trkpt lat="48.16474" lon="6.94649">
        <ele>618.27</ele>
        <time>2014-02-04T15:46:07Z</time>
      </trkpt>
      <trkpt lat="48.1646" lon="6.94631">
        <ele>617.61</ele>
        <time>2014-02-04T15:46:21Z</time>
      </trkpt>
      <trkpt lat="48.16449" lon="6.94614">
        <ele>617.05</ele>
        <time>2014-02-04T15:46:36Z</time>
      </trkpt>
      <trkpt lat="48.16447" lon="6.94611">
        <ele>616.94</ele>
        <time>2014-02-04T15:46:39Z</time>
      </trkpt>
      <trkpt lat="48.16432" lon="6.94592">
        <ele>616.73</ele>
        <time>2014-02-04T15:46:56Z</time>
      </trkpt>
      <trkpt lat="48.16431" lon="6.94591">
        <ele>616.67</ele>
        <time>2014-02-04T15:46:57Z</time>
      </trkpt>
      <trkpt lat="48.16413" lon="6.94574">
        <ele>616.49</ele>
        <time>2014-02-04T15:47:14Z</time>
      </trkpt>
      <trkpt lat="48.16393" lon="6.94551">
        <ele>616.25</ele>
        <time>2014-02-04T15:47:34Z</time>
      </trkpt>
      <trkpt lat="48.16375" lon="6.94533">
        <ele>615.92</ele>
        <time>2014-02-04T15:47:51Z</time>
      </trkpt>
      <trkpt lat="48.16357" lon="6.94512">
        <ele>615.06</ele>
        <time>2014-02-04T15:48:10Z</time>
      </trkpt>
      <trkpt lat="48.16339" lon="6.94488">
        <ele>613.82</ele>
        <time>2014-02-04T15:48:29Z</time>
      </trkpt>
      <trkpt lat="48.16328" lon="6.94468">
        <ele>612.66</ele>
        <time>2014-02-04T15:48:44Z</time>
      </trkpt>
      <trkpt lat="48.16315" lon="6.94449">
        <ele>612</ele>
        <time>2014-02-04T15:48:58Z</time>
      </trkpt>
      <trkpt lat="48.16302" lon="6.94433">
        <ele>611.58</ele>
        <time>2014-02-04T15:49:12Z</time>
      </trkpt>
      <trkpt lat="48.16284" lon="6.94424">
        <ele>611.64</ele>
        <time>2014-02-04T15:49:28Z</time>
      </trkpt>
      <trkpt lat="48.16281" lon="6.94423">
        <ele>611.68</ele>
        <time>2014-02-04T15:49:30Z</time>
      </trkpt>
      <trkpt lat="48.16263" lon="6.94418">
        <ele>612.18</ele>
        <time>2014-02-04T15:49:45Z</time>
      </trkpt>
      <trkpt lat="48.16258" lon="6.94416">
        <ele>612.17</ele>
        <time>2014-02-04T15:49:49Z</time>
      </trkpt>
      <trkpt lat="48.16238" lon="6.94416">
        <ele>613.1</ele>
        <time>2014-02-04T15:50:06Z</time>
      </trkpt>
      <trkpt lat="48.16232" lon="6.94415">
        <ele>613.39</ele>
        <time>2014-02-04T15:50:25Z</time>
      </trkpt>
      <trkpt lat="48.16228" lon="6.94416">
        <ele>613.83</ele>
        <time>2014-02-04T15:50:47Z</time>
      </trkpt>
      <trkpt lat="48.16216" lon="6.94413">
        <ele>614.56</ele>
        <time>2014-02-04T15:51:02Z</time>
      </trkpt>
      <trkpt lat="48.16198" lon="6.94409">
        <ele>615.29</ele>
        <time>2014-02-04T15:51:21Z</time>
      </trkpt>
      <trkpt lat="48.16182" lon="6.94407">
        <ele>615.88</ele>
        <time>2014-02-04T15:51:35Z</time>
      </trkpt>
      <trkpt lat="48.16175" lon="6.94402">
        <ele>615.95</ele>
        <time>2014-02-04T15:51:40Z</time>
      </trkpt>
      <trkpt lat="48.16173" lon="6.94398">
        <ele>616.21</ele>
        <time>2014-02-04T15:51:43Z</time>
      </trkpt>
      <trkpt lat="48.1617" lon="6.94376">
        <ele>616.46</ele>
        <time>2014-02-04T15:51:56Z</time>
      </trkpt>
      <trkpt lat="48.1616" lon="6.94334">
        <ele>616.13</ele>
        <time>2014-02-04T15:52:14Z</time>
      </trkpt>
      <trkpt lat="48.16154" lon="6.94307">
        <ele>616.06</ele>
        <time>2014-02-04T15:52:26Z</time>
      </trkpt>
      <trkpt lat="48.16153" lon="6.94301">
        <ele>616.05</ele>
        <time>2014-02-04T15:52:29Z</time>
      </trkpt>
      <trkpt lat="48.16152" lon="6.94295">
        <ele>616.08</ele>
        <time>2014-02-04T15:52:32Z</time>
      </trkpt>
      <trkpt lat="48.16149" lon="6.9428">
        <ele>615.48</ele>
        <time>2014-02-04T15:52:41Z</time>
      </trkpt>
      <trkpt lat="48.16145" lon="6.94253">
        <ele>614.8</ele>
        <time>2014-02-04T15:52:53Z</time>
      </trkpt>
      <trkpt lat="48.16151" lon="6.94211">
        <ele>613.17</ele>
        <time>2014-02-04T15:53:10Z</time>
      </trkpt>
      <trkpt lat="48.16153" lon="6.94203">
        <ele>612.71</ele>
        <time>2014-02-04T15:53:15Z</time>
      </trkpt>
      <trkpt lat="48.16171" lon="6.94178">
        <ele>612.51</ele>
        <time>2014-02-04T15:53:33Z</time>
      </trkpt>
      <trkpt lat="48.16178" lon="6.94168">
        <ele>612.56</ele>
        <time>2014-02-04T15:53:40Z</time>
      </trkpt>
      <trkpt lat="48.16182" lon="6.94155">
        <ele>612.97</ele>
        <time>2014-02-04T15:53:56Z</time>
      </trkpt>
      <trkpt lat="48.16173" lon="6.94122">
        <ele>614.94</ele>
        <time>2014-02-04T15:54:15Z</time>
      </trkpt>
      <trkpt lat="48.16165" lon="6.94103">
        <ele>617.88</ele>
        <time>2014-02-04T15:54:34Z</time>
      </trkpt>
      <trkpt lat="48.16157" lon="6.94089">
        <ele>620.96</ele>
        <time>2014-02-04T15:54:50Z</time>
      </trkpt>
      <trkpt lat="48.16145" lon="6.94076">
        <ele>623.84</ele>
        <time>2014-02-04T15:55:09Z</time>
      </trkpt>
      <trkpt lat="48.16139" lon="6.94052">
        <ele>625.55</ele>
        <time>2014-02-04T15:55:30Z</time>
      </trkpt>
      <trkpt lat="48.16138" lon="6.94046">
        <ele>625.83</ele>
        <time>2014-02-04T15:55:33Z</time>
      </trkpt>
      <trkpt lat="48.16133" lon="6.94018">
        <ele>626.37</ele>
        <time>2014-02-04T15:55:53Z</time>
      </trkpt>
      <trkpt lat="48.16131" lon="6.9398">
        <ele>627.16</ele>
        <time>2014-02-04T15:56:11Z</time>
      </trkpt>
      <trkpt lat="48.16138" lon="6.93951">
        <ele>628.05</ele>
        <time>2014-02-04T15:56:32Z</time>
      </trkpt>
      <trkpt lat="48.16154" lon="6.93929">
        <ele>628.5</ele>
        <time>2014-02-04T15:56:52Z</time>
      </trkpt>
      <trkpt lat="48.16169" lon="6.93906">
        <ele>627.66</ele>
        <time>2014-02-04T15:57:10Z</time>
      </trkpt>
      <trkpt lat="48.16183" lon="6.93886">
        <ele>627.47</ele>
        <time>2014-02-04T15:57:31Z</time>
      </trkpt>
      <trkpt lat="48.16195" lon="6.9387">
        <ele>628.55</ele>
        <time>2014-02-04T15:57:48Z</time>
      </trkpt>
      <trkpt lat="48.16202" lon="6.93861">
        <ele>628.87</ele>
        <time>2014-02-04T15:57:56Z</time>
      </trkpt>
      <trkpt lat="48.16205" lon="6.93858">
        <ele>628.84</ele>
        <time>2014-02-04T15:58:00Z</time>
      </trkpt>
      <trkpt lat="48.16217" lon="6.93841">
        <ele>628.67</ele>
        <time>2014-02-04T15:58:18Z</time>
      </trkpt>
      <trkpt lat="48.16229" lon="6.93821">
        <ele>628.91</ele>
        <time>2014-02-04T15:58:35Z</time>
      </trkpt>
      <trkpt lat="48.16247" lon="6.93797">
        <ele>629.18</ele>
        <time>2014-02-04T15:58:54Z</time>
      </trkpt>
      <trkpt lat="48.16265" lon="6.9379">
        <ele>628.92</ele>
        <time>2014-02-04T15:59:14Z</time>
      </trkpt>
      <trkpt lat="48.16278" lon="6.93784">
        <ele>629.02</ele>
        <time>2014-02-04T15:59:26Z</time>
      </trkpt>
      <trkpt lat="48.1628" lon="6.93783">
        <ele>629.19</ele>
        <time>2014-02-04T15:59:29Z</time>
      </trkpt>
      <trkpt lat="48.16303" lon="6.93771">
        <ele>629.71</ele>
        <time>2014-02-04T15:59:47Z</time>
      </trkpt>
      <trkpt lat="48.16304" lon="6.9377">
        <ele>629.73</ele>
        <time>2014-02-04T15:59:49Z</time>
      </trkpt>
      <trkpt lat="48.16324" lon="6.93752">
        <ele>630.69</ele>
        <time>2014-02-04T16:00:08Z</time>
      </trkpt>
      <trkpt lat="48.1634" lon="6.93739">
        <ele>631.77</ele>
        <time>2014-02-04T16:00:28Z</time>
      </trkpt>
      <trkpt lat="48.16358" lon="6.93726">
        <ele>633.38</ele>
        <time>2014-02-04T16:00:48Z</time>
      </trkpt>
      <trkpt lat="48.1637" lon="6.937">
        <ele>634.7</ele>
        <time>2014-02-04T16:01:09Z</time>
      </trkpt>
      <trkpt lat="48.16375" lon="6.93673">
        <ele>634.86</ele>
        <time>2014-02-04T16:01:29Z</time>
      </trkpt>
      <trkpt lat="48.16376" lon="6.93657">
        <ele>635.29</ele>
        <time>2014-02-04T16:01:48Z</time>
      </trkpt>
      <trkpt lat="48.16371" lon="6.9364">
        <ele>635</ele>
        <time>2014-02-04T16:02:02Z</time>
      </trkpt>
      <trkpt lat="48.16363" lon="6.93639">
        <ele>637.11</ele>
        <time>2014-02-04T16:02:22Z</time>
      </trkpt>
      <trkpt lat="48.16353" lon="6.93638">
        <ele>640.13</ele>
        <time>2014-02-04T16:02:36Z</time>
      </trkpt>
      <trkpt lat="48.16344" lon="6.93628">
        <ele>642.67</ele>
        <time>2014-02-04T16:02:56Z</time>
      </trkpt>
      <trkpt lat="48.16329" lon="6.93628">
        <ele>644.21</ele>
        <time>2014-02-04T16:03:11Z</time>
      </trkpt>
      <trkpt lat="48.16329" lon="6.93628">
        <ele>644.32</ele>
        <time>2014-02-04T16:03:12Z</time>
      </trkpt>
      <trkpt lat="48.16318" lon="6.93633">
        <ele>645.14</ele>
        <time>2014-02-04T16:03:22Z</time>
      </trkpt>
      <trkpt lat="48.16315" lon="6.93635">
        <ele>645.62</ele>
        <time>2014-02-04T16:03:25Z</time>
      </trkpt>
      <trkpt lat="48.16313" lon="6.93637">
        <ele>646.01</ele>
        <time>2014-02-04T16:03:27Z</time>
      </trkpt>
      <trkpt lat="48.16298" lon="6.93638">
        <ele>649</ele>
        <time>2014-02-04T16:03:44Z</time>
      </trkpt>
      <trkpt lat="48.16284" lon="6.93635">
        <ele>652.11</ele>
        <time>2014-02-04T16:04:01Z</time>
      </trkpt>
      <trkpt lat="48.16271" lon="6.93634">
        <ele>655.21</ele>
        <time>2014-02-04T16:04:14Z</time>
      </trkpt>
      <trkpt lat="48.16259" lon="6.93635">
        <ele>658.21</ele>
        <time>2014-02-04T16:04:29Z</time>
      </trkpt>
      <trkpt lat="48.16246" lon="6.93639">
        <ele>661.24</ele>
        <time>2014-02-04T16:04:44Z</time>
      </trkpt>
      <trkpt lat="48.16231" lon="6.93648">
        <ele>664.49</ele>
        <time>2014-02-04T16:05:03Z</time>
      </trkpt>
      <trkpt lat="48.16218" lon="6.93658">
        <ele>667.58</ele>
        <time>2014-02-04T16:05:19Z</time>
      </trkpt>
      <trkpt lat="48.16206" lon="6.93664">
        <ele>670.63</ele>
        <time>2014-02-04T16:05:37Z</time>
      </trkpt>
      <trkpt lat="48.16203" lon="6.93668">
        <ele>672.09</ele>
        <time>2014-02-04T16:06:08Z</time>
      </trkpt>
      <trkpt lat="48.16209" lon="6.93674">
        <ele>672.07</ele>
        <time>2014-02-04T16:06:42Z</time>
      </trkpt>
      <trkpt lat="48.162" lon="6.93676">
        <ele>673.15</ele>
        <time>2014-02-04T16:06:54Z</time>
      </trkpt>
      <trkpt lat="48.16186" lon="6.93681">
        <ele>676.17</ele>
        <time>2014-02-04T16:07:10Z</time>
      </trkpt>
      <trkpt lat="48.16175" lon="6.93683">
        <ele>679.3</ele>
        <time>2014-02-04T16:07:25Z</time>
      </trkpt>
      <trkpt lat="48.16158" lon="6.93681">
        <ele>682.36</ele>
        <time>2014-02-04T16:07:44Z</time>
      </trkpt>
      <trkpt lat="48.16145" lon="6.93684">
        <ele>685.53</ele>
        <time>2014-02-04T16:07:59Z</time>
      </trkpt>
      <trkpt lat="48.16134" lon="6.93685">
        <ele>688.4</ele>
        <time>2014-02-04T16:08:15Z</time>
      </trkpt>
      <trkpt lat="48.16119" lon="6.9369">
        <ele>691.64</ele>
        <time>2014-02-04T16:08:32Z</time>
      </trkpt>
      <trkpt lat="48.16103" lon="6.93687">
        <ele>694.44</ele>
        <time>2014-02-04T16:08:50Z</time>
      </trkpt>
      <trkpt lat="48.16087" lon="6.93688">
        <ele>697.69</ele>
        <time>2014-02-04T16:09:11Z</time>
      </trkpt>
      <trkpt lat="48.16072" lon="6.93698">
        <ele>700.48</ele>
        <time>2014-02-04T16:09:28Z</time>
      </trkpt>
      <trkpt lat="48.16063" lon="6.93701">
        <ele>703.48</ele>
        <time>2014-02-04T16:09:43Z</time>
      </trkpt>
      <trkpt lat="48.16062" lon="6.93701">
        <ele>704.33</ele>
        <time>2014-02-04T16:09:47Z</time>
      </trkpt>
      <trkpt lat="48.16049" lon="6.93704">
        <ele>707.64</ele>
        <time>2014-02-04T16:10:09Z</time>
      </trkpt>
      <trkpt lat="48.16034" lon="6.93711">
        <ele>710.27</ele>
        <time>2014-02-04T16:10:28Z</time>
      </trkpt>
      <trkpt lat="48.16028" lon="6.9372">
        <ele>712.12</ele>
        <time>2014-02-04T16:10:50Z</time>
      </trkpt>
      <trkpt lat="48.16024" lon="6.93722">
        <ele>712.15</ele>
        <time>2014-02-04T16:11:19Z</time>
      </trkpt>
      <trkpt lat="48.16019" lon="6.9372">
        <ele>712.68</ele>
        <time>2014-02-04T16:11:33Z</time>
      </trkpt>
      <trkpt lat="48.15998" lon="6.93732">
        <ele>714.86</ele>
        <time>2014-02-04T16:11:55Z</time>
      </trkpt>
      <trkpt lat="48.15986" lon="6.93735">
        <ele>717.93</ele>
        <time>2014-02-04T16:12:12Z</time>
      </trkpt>
      <trkpt lat="48.15971" lon="6.93733">
        <ele>720.94</ele>
        <time>2014-02-04T16:12:30Z</time>
      </trkpt>
      <trkpt lat="48.15959" lon="6.93737">
        <ele>724</ele>
        <time>2014-02-04T16:12:51Z</time>
      </trkpt>
      <trkpt lat="48.15947" lon="6.93742">
        <ele>725.16</ele>
        <time>2014-02-04T16:13:18Z</time>
      </trkpt>
      <trkpt lat="48.15931" lon="6.93739">
        <ele>728.26</ele>
        <time>2014-02-04T16:13:33Z</time>
      </trkpt>
      <trkpt lat="48.15916" lon="6.93731">
        <ele>731.02</ele>
        <time>2014-02-04T16:13:52Z</time>
      </trkpt>
      <trkpt lat="48.15899" lon="6.93721">
        <ele>734.1</ele>
        <time>2014-02-04T16:14:12Z</time>
      </trkpt>
      <trkpt lat="48.15888" lon="6.93709">
        <ele>737.15</ele>
        <time>2014-02-04T16:14:29Z</time>
      </trkpt>
      <trkpt lat="48.15874" lon="6.93705">
        <ele>740.15</ele>
        <time>2014-02-04T16:14:47Z</time>
      </trkpt>
      <trkpt lat="48.15867" lon="6.93698">
        <ele>742.06</ele>
        <time>2014-02-04T16:14:59Z</time>
      </trkpt>
      <trkpt lat="48.15856" lon="6.93693">
        <ele>744.5</ele>
        <time>2014-02-04T16:15:22Z</time>
      </trkpt>
      <trkpt lat="48.15839" lon="6.93687">
        <ele>747.68</ele>
        <time>2014-02-04T16:15:41Z</time>
      </trkpt>
      <trkpt lat="48.15833" lon="6.93679">
        <ele>749.82</ele>
        <time>2014-02-04T16:16:00Z</time>
      </trkpt>
      <trkpt lat="48.15831" lon="6.93677">
        <ele>749.93</ele>
        <time>2014-02-04T16:16:03Z</time>
      </trkpt>
      <trkpt lat="48.15819" lon="6.9367">
        <ele>752.3</ele>
        <time>2014-02-04T16:16:20Z</time>
      </trkpt>
      <trkpt lat="48.15805" lon="6.93659">
        <ele>754.97</ele>
        <time>2014-02-04T16:16:39Z</time>
      </trkpt>
      <trkpt lat="48.15792" lon="6.93651">
        <ele>757.8</ele>
        <time>2014-02-04T16:16:59Z</time>
      </trkpt>
      <trkpt lat="48.15787" lon="6.93655">
        <ele>758.76</ele>
        <time>2014-02-04T16:17:26Z</time>
      </trkpt>
      <trkpt lat="48.1579" lon="6.93652">
        <ele>759.07</ele>
        <time>2014-02-04T16:17:53Z</time>
      </trkpt>
      <trkpt lat="48.15785" lon="6.9364">
        <ele>760.49</ele>
        <time>2014-02-04T16:18:16Z</time>
      </trkpt>
      <trkpt lat="48.15777" lon="6.93633">
        <ele>762.01</ele>
        <time>2014-02-04T16:18:40Z</time>
      </trkpt>
      <trkpt lat="48.15772" lon="6.93623">
        <ele>763.48</ele>
        <time>2014-02-04T16:18:56Z</time>
      </trkpt>
      <trkpt lat="48.15762" lon="6.93608">
        <ele>764.48</ele>
        <time>2014-02-04T16:19:13Z</time>
      </trkpt>
      <trkpt lat="48.15752" lon="6.93598">
        <ele>766.37</ele>
        <time>2014-02-04T16:19:28Z</time>
      </trkpt>
      <trkpt lat="48.15751" lon="6.93596">
        <ele>767.46</ele>
        <time>2014-02-04T16:19:39Z</time>
      </trkpt>
      <trkpt lat="48.15739" lon="6.93584">
        <ele>768.13</ele>
        <time>2014-02-04T16:19:57Z</time>
      </trkpt>
      <trkpt lat="48.15735" lon="6.9358">
        <ele>768.72</ele>
        <time>2014-02-04T16:20:02Z</time>
      </trkpt>
      <trkpt lat="48.15727" lon="6.93568">
        <ele>769.77</ele>
        <time>2014-02-04T16:20:13Z</time>
      </trkpt>
      <trkpt lat="48.15712" lon="6.93566">
        <ele>770.97</ele>
        <time>2014-02-04T16:20:31Z</time>
      </trkpt>
      <trkpt lat="48.15689" lon="6.93565">
        <ele>773.54</ele>
        <time>2014-02-04T16:20:54Z</time>
      </trkpt>
      <trkpt lat="48.15669" lon="6.93574">
        <ele>775.79</ele>
        <time>2014-02-04T16:21:11Z</time>
      </trkpt>
      <trkpt lat="48.15653" lon="6.93583">
        <ele>778.46</ele>
        <time>2014-02-04T16:21:31Z</time>
      </trkpt>
      <trkpt lat="48.1564" lon="6.9359">
        <ele>781.6</ele>
        <time>2014-02-04T16:21:48Z</time>
      </trkpt>
      <trkpt lat="48.15624" lon="6.93603">
        <ele>784.43</ele>
        <time>2014-02-04T16:22:09Z</time>
      </trkpt>
      <trkpt lat="48.15614" lon="6.93614">
        <ele>786.95</ele>
        <time>2014-02-04T16:22:28Z</time>
      </trkpt>
      <trkpt lat="48.15603" lon="6.93616">
        <ele>787.4</ele>
        <time>2014-02-04T16:22:59Z</time>
      </trkpt>
      <trkpt lat="48.15597" lon="6.93636">
        <ele>789.48</ele>
        <time>2014-02-04T16:23:19Z</time>
      </trkpt>
      <trkpt lat="48.15589" lon="6.93652">
        <ele>792.51</ele>
        <time>2014-02-04T16:23:38Z</time>
      </trkpt>
      <trkpt lat="48.15577" lon="6.9367">
        <ele>795.16</ele>
        <time>2014-02-04T16:23:56Z</time>
      </trkpt>
      <trkpt lat="48.15577" lon="6.93671">
        <ele>795.28</ele>
        <time>2014-02-04T16:23:57Z</time>
      </trkpt>
      <trkpt lat="48.15563" lon="6.93685">
        <ele>797.97</ele>
        <time>2014-02-04T16:24:16Z</time>
      </trkpt>
      <trkpt lat="48.1555" lon="6.93706">
        <ele>800.99</ele>
        <time>2014-02-04T16:24:37Z</time>
      </trkpt>
      <trkpt lat="48.15539" lon="6.93721">
        <ele>803.66</ele>
        <time>2014-02-04T16:24:58Z</time>
      </trkpt>
      <trkpt lat="48.15524" lon="6.93736">
        <ele>806.62</ele>
        <time>2014-02-04T16:25:16Z</time>
      </trkpt>
      <trkpt lat="48.15505" lon="6.9373">
        <ele>809.4</ele>
        <time>2014-02-04T16:25:36Z</time>
      </trkpt>
      <trkpt lat="48.15489" lon="6.93737">
        <ele>812.2</ele>
        <time>2014-02-04T16:25:57Z</time>
      </trkpt>
      <trkpt lat="48.15478" lon="6.93766">
        <ele>814.88</ele>
        <time>2014-02-04T16:26:19Z</time>
      </trkpt>
      <trkpt lat="48.15471" lon="6.93783">
        <ele>816.44</ele>
        <time>2014-02-04T16:26:37Z</time>
      </trkpt>
      <trkpt lat="48.15456" lon="6.93797">
        <ele>818.54</ele>
        <time>2014-02-04T16:26:57Z</time>
      </trkpt>
      <trkpt lat="48.15442" lon="6.93806">
        <ele>820.97</ele>
        <time>2014-02-04T16:27:17Z</time>
      </trkpt>
      <trkpt lat="48.15427" lon="6.9382">
        <ele>823.58</ele>
        <time>2014-02-04T16:27:35Z</time>
      </trkpt>
      <trkpt lat="48.15427" lon="6.93828">
        <ele>823.94</ele>
        <time>2014-02-04T16:28:01Z</time>
      </trkpt>
      <trkpt lat="48.1542" lon="6.93834">
        <ele>824.01</ele>
        <time>2014-02-04T16:28:29Z</time>
      </trkpt>
      <trkpt lat="48.15406" lon="6.93861">
        <ele>825.51</ele>
        <time>2014-02-04T16:28:48Z</time>
      </trkpt>
      <trkpt lat="48.15392" lon="6.93889">
        <ele>826.92</ele>
        <time>2014-02-04T16:29:06Z</time>
      </trkpt>
      <trkpt lat="48.15387" lon="6.93898">
        <ele>827.04</ele>
        <time>2014-02-04T16:29:11Z</time>
      </trkpt>
      <trkpt lat="48.15385" lon="6.93905">
        <ele>827.17</ele>
        <time>2014-02-04T16:29:15Z</time>
      </trkpt>
      <trkpt lat="48.15375" lon="6.93938">
        <ele>828.31</ele>
        <time>2014-02-04T16:29:33Z</time>
      </trkpt>
      <trkpt lat="48.15363" lon="6.93969">
        <ele>829.01</ele>
        <time>2014-02-04T16:29:51Z</time>
      </trkpt>
      <trkpt lat="48.15357" lon="6.93989">
        <ele>829.44</ele>
        <time>2014-02-04T16:30:05Z</time>
      </trkpt>
      <trkpt lat="48.15351" lon="6.94015">
        <ele>829.37</ele>
        <time>2014-02-04T16:30:21Z</time>
      </trkpt>
      <trkpt lat="48.15343" lon="6.94039">
        <ele>829.79</ele>
        <time>2014-02-04T16:30:35Z</time>
      </trkpt>
      <trkpt lat="48.15336" lon="6.94072">
        <ele>830.64</ele>
        <time>2014-02-04T16:30:51Z</time>
      </trkpt>
      <trkpt lat="48.15327" lon="6.94106">
        <ele>831.42</ele>
        <time>2014-02-04T16:31:14Z</time>
      </trkpt>
      <trkpt lat="48.15328" lon="6.94114">
        <ele>832.34</ele>
        <time>2014-02-04T16:31:32Z</time>
      </trkpt>
      <trkpt lat="48.15331" lon="6.94111">
        <ele>832.66</ele>
        <time>2014-02-04T16:31:58Z</time>
      </trkpt>
      <trkpt lat="48.15338" lon="6.9412">
        <ele>832.67</ele>
        <time>2014-02-04T16:32:14Z</time>
      </trkpt>
      <trkpt lat="48.15331" lon="6.9413">
        <ele>832.95</ele>
        <time>2014-02-04T16:32:31Z</time>
      </trkpt>
      <trkpt lat="48.15325" lon="6.94138">
        <ele>832.89</ele>
        <time>2014-02-04T16:32:39Z</time>
      </trkpt>
      <trkpt lat="48.15322" lon="6.94154">
        <ele>833.24</ele>
        <time>2014-02-04T16:32:48Z</time>
      </trkpt>
      <trkpt lat="48.15318" lon="6.94186">
        <ele>833.84</ele>
        <time>2014-02-04T16:33:03Z</time>
      </trkpt>
      <trkpt lat="48.15321" lon="6.94212">
        <ele>834.79</ele>
        <time>2014-02-04T16:33:15Z</time>
      </trkpt>
      <trkpt lat="48.15319" lon="6.94223">
        <ele>834.95</ele>
        <time>2014-02-04T16:33:20Z</time>
      </trkpt>
      <trkpt lat="48.15317" lon="6.94253">
        <ele>835.89</ele>
        <time>2014-02-04T16:33:35Z</time>
      </trkpt>
      <trkpt lat="48.1531" lon="6.94288">
        <ele>837</ele>
        <time>2014-02-04T16:33:54Z</time>
      </trkpt>
      <trkpt lat="48.15307" lon="6.9431">
        <ele>838.46</ele>
        <time>2014-02-04T16:34:06Z</time>
      </trkpt>
      <trkpt lat="48.15304" lon="6.94342">
        <ele>840.7</ele>
        <time>2014-02-04T16:34:23Z</time>
      </trkpt>
      <trkpt lat="48.15299" lon="6.9437">
        <ele>843.11</ele>
        <time>2014-02-04T16:34:38Z</time>
      </trkpt>
      <trkpt lat="48.15293" lon="6.94404">
        <ele>846.11</ele>
        <time>2014-02-04T16:34:59Z</time>
      </trkpt>
      <trkpt lat="48.15286" lon="6.94428">
        <ele>848.07</ele>
        <time>2014-02-04T16:35:16Z</time>
      </trkpt>
      <trkpt lat="48.15274" lon="6.9445">
        <ele>850.64</ele>
        <time>2014-02-04T16:35:36Z</time>
      </trkpt>
      <trkpt lat="48.15261" lon="6.94469">
        <ele>853.4</ele>
        <time>2014-02-04T16:35:57Z</time>
      </trkpt>
      <trkpt lat="48.15252" lon="6.94491">
        <ele>855.72</ele>
        <time>2014-02-04T16:36:19Z</time>
      </trkpt>
      <trkpt lat="48.15239" lon="6.94517">
        <ele>857.61</ele>
        <time>2014-02-04T16:36:42Z</time>
      </trkpt>
      <trkpt lat="48.15229" lon="6.94541">
        <ele>859.42</ele>
        <time>2014-02-04T16:37:03Z</time>
      </trkpt>
      <trkpt lat="48.15216" lon="6.94568">
        <ele>860.98</ele>
        <time>2014-02-04T16:37:26Z</time>
      </trkpt>
      <trkpt lat="48.15197" lon="6.94598">
        <ele>863.32</ele>
        <time>2014-02-04T16:37:49Z</time>
      </trkpt>
      <trkpt lat="48.15188" lon="6.94619">
        <ele>864.76</ele>
        <time>2014-02-04T16:38:06Z</time>
      </trkpt>
      <trkpt lat="48.1518" lon="6.94642">
        <ele>865.98</ele>
        <time>2014-02-04T16:38:22Z</time>
      </trkpt>
      <trkpt lat="48.15174" lon="6.94668">
        <ele>867.34</ele>
        <time>2014-02-04T16:38:40Z</time>
      </trkpt>
      <trkpt lat="48.1517" lon="6.947">
        <ele>869.37</ele>
        <time>2014-02-04T16:39:00Z</time>
      </trkpt>
      <trkpt lat="48.15165" lon="6.94728">
        <ele>871.59</ele>
        <time>2014-02-04T16:39:18Z</time>
      </trkpt>
      <trkpt lat="48.1516" lon="6.94755">
        <ele>874.05</ele>
        <time>2014-02-04T16:39:37Z</time>
      </trkpt>
      <trkpt lat="48.15159" lon="6.94777">
        <ele>876.05</ele>
        <time>2014-02-04T16:39:55Z</time>
      </trkpt>
      <trkpt lat="48.15152" lon="6.94808">
        <ele>877.92</ele>
        <time>2014-02-04T16:40:18Z</time>
      </trkpt>
      <trkpt lat="48.1515" lon="6.94834">
        <ele>879.33</ele>
        <time>2014-02-04T16:40:38Z</time>
      </trkpt>
      <trkpt lat="48.15149" lon="6.94865">
        <ele>881.05</ele>
        <time>2014-02-04T16:40:59Z</time>
      </trkpt>
      <trkpt lat="48.15149" lon="6.94885">
        <ele>882.06</ele>
        <time>2014-02-04T16:41:13Z</time>
      </trkpt>
      <trkpt lat="48.15149" lon="6.94887">
        <ele>882.92</ele>
        <time>2014-02-04T16:41:21Z</time>
      </trkpt>
      <trkpt lat="48.15152" lon="6.94901">
        <ele>883.44</ele>
        <time>2014-02-04T16:41:41Z</time>
      </trkpt>
      <trkpt lat="48.1515" lon="6.94918">
        <ele>883.87</ele>
        <time>2014-02-04T16:41:54Z</time>
      </trkpt>
      <trkpt lat="48.15145" lon="6.94937">
        <ele>885.05</ele>
        <time>2014-02-04T16:42:06Z</time>
      </trkpt>
      <trkpt lat="48.15137" lon="6.94958">
        <ele>886.17</ele>
        <time>2014-02-04T16:42:22Z</time>
      </trkpt>
      <trkpt lat="48.15136" lon="6.9496">
        <ele>886.24</ele>
        <time>2014-02-04T16:42:24Z</time>
      </trkpt>
      <trkpt lat="48.15125" lon="6.94981">
        <ele>887.26</ele>
        <time>2014-02-04T16:42:45Z</time>
      </trkpt>
      <trkpt lat="48.15112" lon="6.95008">
        <ele>889.21</ele>
        <time>2014-02-04T16:43:07Z</time>
      </trkpt>
      <trkpt lat="48.15096" lon="6.95028">
        <ele>891.23</ele>
        <time>2014-02-04T16:43:29Z</time>
      </trkpt>
      <trkpt lat="48.1508" lon="6.9505">
        <ele>894.25</ele>
        <time>2014-02-04T16:43:53Z</time>
      </trkpt>
      <trkpt lat="48.15065" lon="6.95069">
        <ele>896.42</ele>
        <time>2014-02-04T16:44:12Z</time>
      </trkpt>
      <trkpt lat="48.1505" lon="6.95074">
        <ele>897.73</ele>
        <time>2014-02-04T16:44:37Z</time>
      </trkpt>
      <trkpt lat="48.15043" lon="6.95096">
        <ele>899.7</ele>
        <time>2014-02-04T16:45:00Z</time>
      </trkpt>
      <trkpt lat="48.15038" lon="6.95125">
        <ele>902.1</ele>
        <time>2014-02-04T16:45:17Z</time>
      </trkpt>
      <trkpt lat="48.15042" lon="6.95155">
        <ele>903.47</ele>
        <time>2014-02-04T16:45:36Z</time>
      </trkpt>
      <trkpt lat="48.15051" lon="6.95187">
        <ele>904.3</ele>
        <time>2014-02-04T16:45:59Z</time>
      </trkpt>
      <trkpt lat="48.15053" lon="6.95206">
        <ele>905.4</ele>
        <time>2014-02-04T16:46:17Z</time>
      </trkpt>
      <trkpt lat="48.1506" lon="6.95235">
        <ele>906.45</ele>
        <time>2014-02-04T16:46:39Z</time>
      </trkpt>
      <trkpt lat="48.15066" lon="6.95271">
        <ele>907.86</ele>
        <time>2014-02-04T16:47:01Z</time>
      </trkpt>
      <trkpt lat="48.15078" lon="6.95297">
        <ele>908.25</ele>
        <time>2014-02-04T16:47:21Z</time>
      </trkpt>
      <trkpt lat="48.15085" lon="6.95329">
        <ele>907.44</ele>
        <time>2014-02-04T16:47:40Z</time>
      </trkpt>
      <trkpt lat="48.15095" lon="6.95364">
        <ele>907.17</ele>
        <time>2014-02-04T16:48:03Z</time>
      </trkpt>
      <trkpt lat="48.15097" lon="6.95394">
        <ele>906.5</ele>
        <time>2014-02-04T16:48:24Z</time>
      </trkpt>
      <trkpt lat="48.15099" lon="6.95432">
        <ele>906.05</ele>
        <time>2014-02-04T16:48:46Z</time>
      </trkpt>
      <trkpt lat="48.15098" lon="6.95472">
        <ele>905.82</ele>
        <time>2014-02-04T16:49:09Z</time>
      </trkpt>
      <trkpt lat="48.151" lon="6.95489">
        <ele>905.73</ele>
        <time>2014-02-04T16:49:21Z</time>
      </trkpt>
      <trkpt lat="48.151" lon="6.95513">
        <ele>907.05</ele>
        <time>2014-02-04T16:49:38Z</time>
      </trkpt>
      <trkpt lat="48.151" lon="6.9554">
        <ele>908.32</ele>
        <time>2014-02-04T16:49:57Z</time>
      </trkpt>
      <trkpt lat="48.15095" lon="6.95571">
        <ele>910.17</ele>
        <time>2014-02-04T16:50:18Z</time>
      </trkpt>
      <trkpt lat="48.15095" lon="6.95604">
        <ele>912.14</ele>
        <time>2014-02-04T16:50:41Z</time>
      </trkpt>
      <trkpt lat="48.151" lon="6.95636">
        <ele>913.12</ele>
        <time>2014-02-04T16:51:03Z</time>
      </trkpt>
      <trkpt lat="48.15107" lon="6.95669">
        <ele>914.24</ele>
        <time>2014-02-04T16:51:24Z</time>
      </trkpt>
      <trkpt lat="48.1511" lon="6.95676">
        <ele>914.23</ele>
        <time>2014-02-04T16:51:29Z</time>
      </trkpt>
      <trkpt lat="48.15118" lon="6.95712">
        <ele>913.86</ele>
        <time>2014-02-04T16:51:53Z</time>
      </trkpt>
      <trkpt lat="48.15124" lon="6.95736">
        <ele>913.19</ele>
        <time>2014-02-04T16:52:10Z</time>
      </trkpt>
      <trkpt lat="48.15125" lon="6.95766">
        <ele>913.26</ele>
        <time>2014-02-04T16:52:31Z</time>
      </trkpt>
      <trkpt lat="48.1513" lon="6.958">
        <ele>913.01</ele>
        <time>2014-02-04T16:52:52Z</time>
      </trkpt>
      <trkpt lat="48.15129" lon="6.95831">
        <ele>912.54</ele>
        <time>2014-02-04T16:53:13Z</time>
      </trkpt>
      <trkpt lat="48.15136" lon="6.95837">
        <ele>912.6</ele>
        <time>2014-02-04T16:53:35Z</time>
      </trkpt>
      <trkpt lat="48.15136" lon="6.95838">
        <ele>912.55</ele>
        <time>2014-02-04T16:54:05Z</time>
      </trkpt>
      <trkpt lat="48.15132" lon="6.95843">
        <ele>912.67</ele>
        <time>2014-02-04T16:54:31Z</time>
      </trkpt>
      <trkpt lat="48.15128" lon="6.95874">
        <ele>912.16</ele>
        <time>2014-02-04T16:54:53Z</time>
      </trkpt>
      <trkpt lat="48.15126" lon="6.95899">
        <ele>911.36</ele>
        <time>2014-02-04T16:55:12Z</time>
      </trkpt>
      <trkpt lat="48.1512" lon="6.95921">
        <ele>910.49</ele>
        <time>2014-02-04T16:55:32Z</time>
      </trkpt>
      <trkpt lat="48.1512" lon="6.95941">
        <ele>908.48</ele>
        <time>2014-02-04T16:55:52Z</time>
      </trkpt>
      <trkpt lat="48.15121" lon="6.95966">
        <ele>906.08</ele>
        <time>2014-02-04T16:56:12Z</time>
      </trkpt>
      <trkpt lat="48.15124" lon="6.95994">
        <ele>903.29</ele>
        <time>2014-02-04T16:56:32Z</time>
      </trkpt>
      <trkpt lat="48.15128" lon="6.9603">
        <ele>901.29</ele>
        <time>2014-02-04T16:56:53Z</time>
      </trkpt>
      <trkpt lat="48.15132" lon="6.96061">
        <ele>899.96</ele>
        <time>2014-02-04T16:57:15Z</time>
      </trkpt>
      <trkpt lat="48.15131" lon="6.96083">
        <ele>899.15</ele>
        <time>2014-02-04T16:57:27Z</time>
      </trkpt>
      <trkpt lat="48.15128" lon="6.96104">
        <ele>898.63</ele>
        <time>2014-02-04T16:57:42Z</time>
      </trkpt>
      <trkpt lat="48.15118" lon="6.96126">
        <ele>896.97</ele>
        <time>2014-02-04T16:58:02Z</time>
      </trkpt>
      <trkpt lat="48.15101" lon="6.96145">
        <ele>894.28</ele>
        <time>2014-02-04T16:58:22Z</time>
      </trkpt>
      <trkpt lat="48.15087" lon="6.96156">
        <ele>891.92</ele>
        <time>2014-02-04T16:58:45Z</time>
      </trkpt>
      <trkpt lat="48.1507" lon="6.96169">
        <ele>889.84</ele>
        <time>2014-02-04T16:59:04Z</time>
      </trkpt>
      <trkpt lat="48.15059" lon="6.96188">
        <ele>886.74</ele>
        <time>2014-02-04T16:59:23Z</time>
      </trkpt>
      <trkpt lat="48.15042" lon="6.96189">
        <ele>884.05</ele>
        <time>2014-02-04T16:59:41Z</time>
      </trkpt>
      <trkpt lat="48.15039" lon="6.96193">
        <ele>883.02</ele>
        <time>2014-02-04T17:00:01Z</time>
      </trkpt>
      <trkpt lat="48.15042" lon="6.96205">
        <ele>884.24</ele>
        <time>2014-02-04T17:00:19Z</time>
      </trkpt>
      <trkpt lat="48.15033" lon="6.96196">
        <ele>883.5</ele>
        <time>2014-02-04T17:00:40Z</time>
      </trkpt>
      <trkpt lat="48.15026" lon="6.96174">
        <ele>881.55</ele>
        <time>2014-02-04T17:00:55Z</time>
      </trkpt>
      <trkpt lat="48.15021" lon="6.96147">
        <ele>879.6</ele>
        <time>2014-02-04T17:01:15Z</time>
      </trkpt>
      <trkpt lat="48.15019" lon="6.96117">
        <ele>877.21</ele>
        <time>2014-02-04T17:01:35Z</time>
      </trkpt>
      <trkpt lat="48.15013" lon="6.9609">
        <ele>874.71</ele>
        <time>2014-02-04T17:01:51Z</time>
      </trkpt>
      <trkpt lat="48.15009" lon="6.96087">
        <ele>873.92</ele>
        <time>2014-02-04T17:01:55Z</time>
      </trkpt>
      <trkpt lat="48.14995" lon="6.96087">
        <ele>871.27</ele>
        <time>2014-02-04T17:02:10Z</time>
      </trkpt>
      <trkpt lat="48.14984" lon="6.96085">
        <ele>868.67</ele>
        <time>2014-02-04T17:02:25Z</time>
      </trkpt>
      <trkpt lat="48.14971" lon="6.96091">
        <ele>865.7</ele>
        <time>2014-02-04T17:02:43Z</time>
      </trkpt>
      <trkpt lat="48.14956" lon="6.96092">
        <ele>863.81</ele>
        <time>2014-02-04T17:03:00Z</time>
      </trkpt>
      <trkpt lat="48.14947" lon="6.96102">
        <ele>862.33</ele>
        <time>2014-02-04T17:03:15Z</time>
      </trkpt>
      <trkpt lat="48.14952" lon="6.96107">
        <ele>860.88</ele>
        <time>2014-02-04T17:03:32Z</time>
      </trkpt>
      <trkpt lat="48.1496" lon="6.96123">
        <ele>858.09</ele>
        <time>2014-02-04T17:03:51Z</time>
      </trkpt>
      <trkpt lat="48.14962" lon="6.96137">
        <ele>854.82</ele>
        <time>2014-02-04T17:04:03Z</time>
      </trkpt>
      <trkpt lat="48.14959" lon="6.96156">
        <ele>851.88</ele>
        <time>2014-02-04T17:04:20Z</time>
      </trkpt>
      <trkpt lat="48.14953" lon="6.96171">
        <ele>849.21</ele>
        <time>2014-02-04T17:04:34Z</time>
      </trkpt>
      <trkpt lat="48.14947" lon="6.96192">
        <ele>846.56</ele>
        <time>2014-02-04T17:04:53Z</time>
      </trkpt>
      <trkpt lat="48.1494" lon="6.9621">
        <ele>843.36</ele>
        <time>2014-02-04T17:05:13Z</time>
      </trkpt>
      <trkpt lat="48.14936" lon="6.96213">
        <ele>840.29</ele>
        <time>2014-02-04T17:05:24Z</time>
      </trkpt>
      <trkpt lat="48.14927" lon="6.96226">
        <ele>837</ele>
        <time>2014-02-04T17:05:38Z</time>
      </trkpt>
      <trkpt lat="48.1492" lon="6.96244">
        <ele>833.87</ele>
        <time>2014-02-04T17:05:52Z</time>
      </trkpt>
      <trkpt lat="48.14914" lon="6.96266">
        <ele>830.79</ele>
        <time>2014-02-04T17:06:09Z</time>
      </trkpt>
      <trkpt lat="48.14912" lon="6.96289">
        <ele>827.73</ele>
        <time>2014-02-04T17:06:27Z</time>
      </trkpt>
      <trkpt lat="48.14911" lon="6.96309">
        <ele>826.07</ele>
        <time>2014-02-04T17:06:39Z</time>
      </trkpt>
      <trkpt lat="48.14911" lon="6.96345">
        <ele>823.04</ele>
        <time>2014-02-04T17:06:59Z</time>
      </trkpt>
      <trkpt lat="48.14911" lon="6.96378">
        <ele>820.61</ele>
        <time>2014-02-04T17:07:20Z</time>
      </trkpt>
      <trkpt lat="48.14911" lon="6.96404">
        <ele>817.59</ele>
        <time>2014-02-04T17:07:39Z</time>
      </trkpt>
      <trkpt lat="48.14913" lon="6.96434">
        <ele>814.67</ele>
        <time>2014-02-04T17:07:59Z</time>
      </trkpt>
      <trkpt lat="48.14916" lon="6.96428">
        <ele>813.36</ele>
        <time>2014-02-04T17:08:17Z</time>
      </trkpt>
      <trkpt lat="48.14918" lon="6.96419">
        <ele>814.46</ele>
        <time>2014-02-04T17:08:24Z</time>
      </trkpt>
      <trkpt lat="48.14919" lon="6.96418">
        <ele>815.6</ele>
        <time>2014-02-04T17:08:49Z</time>
      </trkpt>
      <trkpt lat="48.14914" lon="6.96424">
        <ele>815.27</ele>
        <time>2014-02-04T17:09:18Z</time>
      </trkpt>
      <trkpt lat="48.14908" lon="6.96424">
        <ele>815.76</ele>
        <time>2014-02-04T17:09:45Z</time>
      </trkpt>
      <trkpt lat="48.1491" lon="6.96434">
        <ele>815.14</ele>
        <time>2014-02-04T17:10:03Z</time>
      </trkpt>
      <trkpt lat="48.14914" lon="6.96445">
        <ele>813.41</ele>
        <time>2014-02-04T17:10:24Z</time>
      </trkpt>
      <trkpt lat="48.14913" lon="6.96457">
        <ele>811.08</ele>
        <time>2014-02-04T17:10:44Z</time>
      </trkpt>
      <trkpt lat="48.14911" lon="6.96476">
        <ele>808.01</ele>
        <time>2014-02-04T17:11:03Z</time>
      </trkpt>
      <trkpt lat="48.14909" lon="6.96491">
        <ele>806.15</ele>
        <time>2014-02-04T17:11:21Z</time>
      </trkpt>
      <trkpt lat="48.14908" lon="6.96512">
        <ele>803.05</ele>
        <time>2014-02-04T17:11:41Z</time>
      </trkpt>
      <trkpt lat="48.14906" lon="6.9653">
        <ele>800.75</ele>
        <time>2014-02-04T17:12:03Z</time>
      </trkpt>
      <trkpt lat="48.14907" lon="6.96552">
        <ele>798.36</ele>
        <time>2014-02-04T17:12:22Z</time>
      </trkpt>
      <trkpt lat="48.14911" lon="6.96565">
        <ele>796.91</ele>
        <time>2014-02-04T17:12:39Z</time>
      </trkpt>
      <trkpt lat="48.14918" lon="6.96584">
        <ele>796.42</ele>
        <time>2014-02-04T17:12:53Z</time>
      </trkpt>
      <trkpt lat="48.14919" lon="6.96589">
        <ele>796.17</ele>
        <time>2014-02-04T17:12:56Z</time>
      </trkpt>
      <trkpt lat="48.1492" lon="6.96594">
        <ele>795.96</ele>
        <time>2014-02-04T17:12:59Z</time>
      </trkpt>
      <trkpt lat="48.14922" lon="6.96604">
        <ele>795.53</ele>
        <time>2014-02-04T17:13:05Z</time>
      </trkpt>
      <trkpt lat="48.14927" lon="6.96614">
        <ele>795.24</ele>
        <time>2014-02-04T17:13:12Z</time>
      </trkpt>
      <trkpt lat="48.14931" lon="6.96639">
        <ele>794.85</ele>
        <time>2014-02-04T17:13:26Z</time>
      </trkpt>
      <trkpt lat="48.14936" lon="6.96653">
        <ele>794.21</ele>
        <time>2014-02-04T17:13:36Z</time>
      </trkpt>
      <trkpt lat="48.1494" lon="6.96671">
        <ele>793.79</ele>
        <time>2014-02-04T17:13:46Z</time>
      </trkpt>
      <trkpt lat="48.14944" lon="6.96676">
        <ele>793.73</ele>
        <time>2014-02-04T17:13:51Z</time>
      </trkpt>
      <trkpt lat="48.14952" lon="6.96698">
        <ele>793.72</ele>
        <time>2014-02-04T17:14:07Z</time>
      </trkpt>
      <trkpt lat="48.14962" lon="6.96715">
        <ele>793.41</ele>
        <time>2014-02-04T17:14:21Z</time>
      </trkpt>
      <trkpt lat="48.14978" lon="6.96737">
        <ele>793.23</ele>
        <time>2014-02-04T17:14:43Z</time>
      </trkpt>
      <trkpt lat="48.1499" lon="6.96755">
        <ele>792.39</ele>
        <time>2014-02-04T17:15:04Z</time>
      </trkpt>
      <trkpt lat="48.15006" lon="6.96765">
        <ele>791.13</ele>
        <time>2014-02-04T17:15:17Z</time>
      </trkpt>
      <trkpt lat="48.15021" lon="6.96781">
        <ele>790.6</ele>
        <time>2014-02-04T17:15:36Z</time>
      </trkpt>
      <trkpt lat="48.15041" lon="6.96789">
        <ele>789.08</ele>
        <time>2014-02-04T17:15:56Z</time>
      </trkpt>
      <trkpt lat="48.15056" lon="6.96787">
        <ele>787.32</ele>
        <time>2014-02-04T17:16:17Z</time>
      </trkpt>
      <trkpt lat="48.15078" lon="6.96787">
        <ele>785.09</ele>
        <time>2014-02-04T17:16:34Z</time>
      </trkpt>
      <trkpt lat="48.15079" lon="6.96787">
        <ele>784.85</ele>
        <time>2014-02-04T17:16:36Z</time>
      </trkpt>
      <trkpt lat="48.15102" lon="6.96787">
        <ele>782.21</ele>
        <time>2014-02-04T17:16:57Z</time>
      </trkpt>
      <trkpt lat="48.15108" lon="6.96789">
        <ele>780.39</ele>
        <time>2014-02-04T17:17:17Z</time>
      </trkpt>
      <trkpt lat="48.1512" lon="6.96789">
        <ele>779.25</ele>
        <time>2014-02-04T17:17:37Z</time>
      </trkpt>
      <trkpt lat="48.15138" lon="6.96789">
        <ele>777.75</ele>
        <time>2014-02-04T17:17:56Z</time>
      </trkpt>
      <trkpt lat="48.15147" lon="6.96787">
        <ele>776.21</ele>
        <time>2014-02-04T17:18:18Z</time>
      </trkpt>
      <trkpt lat="48.15149" lon="6.96787">
        <ele>776.04</ele>
        <time>2014-02-04T17:18:20Z</time>
      </trkpt>
      <trkpt lat="48.15157" lon="6.96788">
        <ele>775.74</ele>
        <time>2014-02-04T17:18:25Z</time>
      </trkpt>
      <trkpt lat="48.1518" lon="6.96795">
        <ele>774.59</ele>
        <time>2014-02-04T17:18:46Z</time>
      </trkpt>
      <trkpt lat="48.15182" lon="6.96795">
        <ele>774.51</ele>
        <time>2014-02-04T17:19:05Z</time>
      </trkpt>
      <trkpt lat="48.15188" lon="6.96793">
        <ele>774.51</ele>
        <time>2014-02-04T17:19:35Z</time>
      </trkpt>
      <trkpt lat="48.15199" lon="6.96802">
        <ele>773.78</ele>
        <time>2014-02-04T17:19:55Z</time>
      </trkpt>
      <trkpt lat="48.15214" lon="6.96808">
        <ele>770.92</ele>
        <time>2014-02-04T17:20:13Z</time>
      </trkpt>
      <trkpt lat="48.15224" lon="6.96818">
        <ele>767.76</ele>
        <time>2014-02-04T17:20:30Z</time>
      </trkpt>
      <trkpt lat="48.15243" lon="6.96829">
        <ele>764.73</ele>
        <time>2014-02-04T17:20:51Z</time>
      </trkpt>
      <trkpt lat="48.15249" lon="6.96832">
        <ele>762.56</ele>
        <time>2014-02-04T17:21:11Z</time>
      </trkpt>
      <trkpt lat="48.15255" lon="6.96835">
        <ele>762.56</ele>
        <time>2014-02-04T17:21:24Z</time>
      </trkpt>
      <trkpt lat="48.15257" lon="6.96835">
        <ele>762.5</ele>
        <time>2014-02-04T17:21:27Z</time>
      </trkpt>
      <trkpt lat="48.15272" lon="6.9684">
        <ele>759.48</ele>
        <time>2014-02-04T17:21:45Z</time>
      </trkpt>
      <trkpt lat="48.15284" lon="6.96847">
        <ele>756.32</ele>
        <time>2014-02-04T17:22:03Z</time>
      </trkpt>
      <trkpt lat="48.15295" lon="6.96851">
        <ele>754.65</ele>
        <time>2014-02-04T17:22:15Z</time>
      </trkpt>
      <trkpt lat="48.15312" lon="6.96846">
        <ele>751.62</ele>
        <time>2014-02-04T17:22:34Z</time>
      </trkpt>
      <trkpt lat="48.15326" lon="6.9683">
        <ele>748.79</ele>
        <time>2014-02-04T17:22:52Z</time>
      </trkpt>
      <trkpt lat="48.15337" lon="6.96813">
        <ele>746.72</ele>
        <time>2014-02-04T17:23:09Z</time>
      </trkpt>
      <trkpt lat="48.15345" lon="6.96792">
        <ele>744.02</ele>
        <time>2014-02-04T17:23:27Z</time>
      </trkpt>
      <trkpt lat="48.1535" lon="6.96783">
        <ele>742.55</ele>
        <time>2014-02-04T17:23:44Z</time>
      </trkpt>
      <trkpt lat="48.15357" lon="6.96794">
        <ele>741.28</ele>
        <time>2014-02-04T17:23:59Z</time>
      </trkpt>
      <trkpt lat="48.15361" lon="6.96812">
        <ele>738.16</ele>
        <time>2014-02-04T17:24:17Z</time>
      </trkpt>
      <trkpt lat="48.15363" lon="6.96832">
        <ele>735.04</ele>
        <time>2014-02-04T17:24:33Z</time>
      </trkpt>
      <trkpt lat="48.15366" lon="6.96855">
        <ele>732.01</ele>
        <time>2014-02-04T17:24:53Z</time>
      </trkpt>
      <trkpt lat="48.15366" lon="6.96873">
        <ele>728.99</ele>
        <time>2014-02-04T17:25:09Z</time>
      </trkpt>
      <trkpt lat="48.15367" lon="6.96874">
        <ele>728.88</ele>
        <time>2014-02-04T17:25:10Z</time>
      </trkpt>
      <trkpt lat="48.15369" lon="6.96875">
        <ele>728.66</ele>
        <time>2014-02-04T17:25:12Z</time>
      </trkpt>
      <trkpt lat="48.15373" lon="6.96889">
        <ele>726.88</ele>
        <time>2014-02-04T17:25:28Z</time>
      </trkpt>
      <trkpt lat="48.15374" lon="6.96901">
        <ele>725.25</ele>
        <time>2014-02-04T17:25:39Z</time>
      </trkpt>
      <trkpt lat="48.15383" lon="6.96922">
        <ele>722.59</ele>
        <time>2014-02-04T17:25:58Z</time>
      </trkpt>
      <trkpt lat="48.15386" lon="6.96943">
        <ele>720.34</ele>
        <time>2014-02-04T17:26:14Z</time>
      </trkpt>
      <trkpt lat="48.15382" lon="6.96966">
        <ele>717.76</ele>
        <time>2014-02-04T17:26:34Z</time>
      </trkpt>
      <trkpt lat="48.1538" lon="6.96971">
        <ele>716.35</ele>
        <time>2014-02-04T17:26:53Z</time>
      </trkpt>
      <trkpt lat="48.15377" lon="6.96984">
        <ele>715.58</ele>
        <time>2014-02-04T17:27:17Z</time>
      </trkpt>
      <trkpt lat="48.15374" lon="6.96996">
        <ele>714.61</ele>
        <time>2014-02-04T17:27:26Z</time>
      </trkpt>
      <trkpt lat="48.1537" lon="6.97026">
        <ele>712.71</ele>
        <time>2014-02-04T17:27:46Z</time>
      </trkpt>
      <trkpt lat="48.15363" lon="6.97045">
        <ele>711.02</ele>
        <time>2014-02-04T17:28:01Z</time>
      </trkpt>
      <trkpt lat="48.15362" lon="6.97051">
        <ele>710.6</ele>
        <time>2014-02-04T17:28:05Z</time>
      </trkpt>
      <trkpt lat="48.15359" lon="6.97058">
        <ele>710.16</ele>
        <time>2014-02-04T17:28:09Z</time>
      </trkpt>
      <trkpt lat="48.15351" lon="6.97086">
        <ele>708.21</ele>
        <time>2014-02-04T17:28:28Z</time>
      </trkpt>
      <trkpt lat="48.1535" lon="6.97102">
        <ele>707.09</ele>
        <time>2014-02-04T17:28:39Z</time>
      </trkpt>
      <trkpt lat="48.15353" lon="6.97109">
        <ele>706.82</ele>
        <time>2014-02-04T17:28:44Z</time>
      </trkpt>
      <trkpt lat="48.1537" lon="6.97122">
        <ele>704.08</ele>
        <time>2014-02-04T17:28:59Z</time>
      </trkpt>
      <trkpt lat="48.15392" lon="6.97114">
        <ele>702.69</ele>
        <time>2014-02-04T17:29:20Z</time>
      </trkpt>
      <trkpt lat="48.15406" lon="6.97101">
        <ele>701.62</ele>
        <time>2014-02-04T17:29:34Z</time>
      </trkpt>
      <trkpt lat="48.15411" lon="6.97097">
        <ele>701.29</ele>
        <time>2014-02-04T17:29:39Z</time>
      </trkpt>
      <trkpt lat="48.15414" lon="6.97091">
        <ele>701.02</ele>
        <time>2014-02-04T17:29:44Z</time>
      </trkpt>
      <trkpt lat="48.15433" lon="6.97069">
        <ele>699.66</ele>
        <time>2014-02-04T17:30:05Z</time>
      </trkpt>
      <trkpt lat="48.15445" lon="6.97056">
        <ele>698.21</ele>
        <time>2014-02-04T17:30:20Z</time>
      </trkpt>
      <trkpt lat="48.15453" lon="6.97048">
        <ele>697.03</ele>
        <time>2014-02-04T17:30:34Z</time>
      </trkpt>
      <trkpt lat="48.15453" lon="6.97047">
        <ele>696.9</ele>
        <time>2014-02-04T17:30:50Z</time>
      </trkpt>
      <trkpt lat="48.15453" lon="6.97046">
        <ele>696.88</ele>
        <time>2014-02-04T17:30:51Z</time>
      </trkpt>
    </trkseg>
  </trk>
</gpx>